sensor_id;sensor_type;location;lat;lon;timestamp;pressure;altitude;pressure_sealevel;temperature;humidity
78835;BME280;68187;42.682;23.352;2024-01-15T00:02:19;94608.06;;;-2.09;68.12
78835;BME280;68187;42.682;23.352;2024-01-15T00:04:46;94614.44;;;-2.19;68.25
78835;BME280;68187;42.682;23.352;2024-01-15T00:07:13;94598.09;;;-2.26;68.96
78835;BME280;68187;42.682;23.352;2024-01-15T00:09:39;94611.25;;;-2.21;69.05
78835;BME280;68187;42.682;23.352;2024-01-15T00:12:07;94594.72;;;-2.46;69.69
78835;BME280;68187;42.682;23.352;2024-01-15T00:14:34;94608.41;;;-2.52;70.72
78835;BME280;68187;42.682;23.352;2024-01-15T00:17:02;94606.03;;;-2.47;71.49
78835;BME280;68187;42.682;23.352;2024-01-15T00:19:29;94606.03;;;-2.60;71.05
78835;BME280;68187;42.682;23.352;2024-01-15T00:21:57;94601.69;;;-2.40;70.19
78835;BME280;68187;42.682;23.352;2024-01-15T00:24:24;94600.06;;;-2.41;71.56
78835;BME280;68187;42.682;23.352;2024-01-15T00:26:51;94607.06;;;-2.28;69.64
78835;BME280;68187;42.682;23.352;2024-01-15T00:29:19;94597.09;;;-2.51;70.81
78835;BME280;68187;42.682;23.352;2024-01-15T00:31:45;94606.84;;;-2.59;70.57
78835;BME280;68187;42.682;23.352;2024-01-15T00:34:14;94606.63;;;-2.45;70.46
78835;BME280;68187;42.682;23.352;2024-01-15T00:36:41;94607.06;;;-2.41;70.01
78835;BME280;68187;42.682;23.352;2024-01-15T00:39:08;94599.09;;;-2.40;70.13
78835;BME280;68187;42.682;23.352;2024-01-15T00:41:36;94608.47;;;-2.32;69.71
78835;BME280;68187;42.682;23.352;2024-01-15T00:44:03;94603.47;;;-2.47;69.94
78835;BME280;68187;42.682;23.352;2024-01-15T00:46:30;94598.28;;;-2.40;70.05
78835;BME280;68187;42.682;23.352;2024-01-15T00:48:57;94608.63;;;-2.40;69.69
78835;BME280;68187;42.682;23.352;2024-01-15T00:51:25;94597.25;;;-2.72;70.74
78835;BME280;68187;42.682;23.352;2024-01-15T00:53:52;94612.59;;;-2.64;70.56
78835;BME280;68187;42.682;23.352;2024-01-15T00:56:19;94605.22;;;-2.67;70.72
78835;BME280;68187;42.682;23.352;2024-01-15T00:58:46;94611.38;;;-2.74;71.39
78835;BME280;68187;42.682;23.352;2024-01-15T01:01:13;94599.69;;;-2.64;70.82
78835;BME280;68187;42.682;23.352;2024-01-15T01:03:40;94597.69;;;-2.68;70.98
78835;BME280;68187;42.682;23.352;2024-01-15T01:06:07;94604.63;;;-2.56;70.59
78835;BME280;68187;42.682;23.352;2024-01-15T01:08:35;94596.88;;;-2.56;70.17
78835;BME280;68187;42.682;23.352;2024-01-15T01:11:02;94597.69;;;-2.62;70.55
78835;BME280;68187;42.682;23.352;2024-01-15T01:13:29;94601.06;;;-2.61;70.94
78835;BME280;68187;42.682;23.352;2024-01-15T01:15:56;94594.06;;;-2.74;71.31
78835;BME280;68187;42.682;23.352;2024-01-15T01:18:23;94586.94;;;-2.59;70.59
78835;BME280;68187;42.682;23.352;2024-01-15T01:20:50;94584.94;;;-2.63;70.64
78835;BME280;68187;42.682;23.352;2024-01-15T01:23:17;94586.53;;;-2.62;70.40
78835;BME280;68187;42.682;23.352;2024-01-15T01:25:46;94595.31;;;-2.57;70.33
78835;BME280;68187;42.682;23.352;2024-01-15T01:28:12;94584.56;;;-2.67;70.64
78835;BME280;68187;42.682;23.352;2024-01-15T01:30:39;94588.53;;;-2.64;70.73
78835;BME280;68187;42.682;23.352;2024-01-15T01:33:06;94582.56;;;-2.58;70.21
78835;BME280;68187;42.682;23.352;2024-01-15T01:35:33;94573.63;;;-2.56;70.70
78835;BME280;68187;42.682;23.352;2024-01-15T01:38:00;94575.41;;;-2.63;71.07
78835;BME280;68187;42.682;23.352;2024-01-15T01:40:27;94567.84;;;-2.64;70.42
78835;BME280;68187;42.682;23.352;2024-01-15T01:42:55;94576.22;;;-2.62;70.67
78835;BME280;68187;42.682;23.352;2024-01-15T01:45:22;94569.47;;;-2.57;70.80
78835;BME280;68187;42.682;23.352;2024-01-15T01:47:49;94575.41;;;-2.50;69.83
78835;BME280;68187;42.682;23.352;2024-01-15T01:50:16;94573.81;;;-2.64;70.54
78835;BME280;68187;42.682;23.352;2024-01-15T01:52:44;94565.44;;;-2.72;71.70
78835;BME280;68187;42.682;23.352;2024-01-15T01:55:11;94576.56;;;-2.85;72.39
78835;BME280;68187;42.682;23.352;2024-01-15T01:57:39;94565.41;;;-2.99;72.43
78835;BME280;68187;42.682;23.352;2024-01-15T02:00:09;94564.03;;;-2.88;72.39
78835;BME280;68187;42.682;23.352;2024-01-15T02:02:37;94564.44;;;-2.84;71.90
78835;BME280;68187;42.682;23.352;2024-01-15T02:05:05;94562.84;;;-2.85;72.74
78835;BME280;68187;42.682;23.352;2024-01-15T02:07:34;94550.75;;;-2.78;72.04
78835;BME280;68187;42.682;23.352;2024-01-15T02:10:02;94556.31;;;-2.68;71.69
78835;BME280;68187;42.682;23.352;2024-01-15T02:12:29;94554.72;;;-2.82;71.85
78835;BME280;68187;42.682;23.352;2024-01-15T02:14:56;94558.28;;;-2.90;72.21
78835;BME280;68187;42.682;23.352;2024-01-15T02:17:24;94545.94;;;-2.88;71.73
78835;BME280;68187;42.682;23.352;2024-01-15T02:19:51;94543.59;;;-2.76;71.60
78835;BME280;68187;42.682;23.352;2024-01-15T02:22:18;94540.19;;;-2.97;72.22
78835;BME280;68187;42.682;23.352;2024-01-15T02:24:47;94534.84;;;-2.88;71.73
78835;BME280;68187;42.682;23.352;2024-01-15T02:27:14;94518.53;;;-2.82;71.24
78835;BME280;68187;42.682;23.352;2024-01-15T02:29:41;94499.66;;;-2.90;71.44
78835;BME280;68187;42.682;23.352;2024-01-15T02:32:09;94493.69;;;-3.03;71.86
78835;BME280;68187;42.682;23.352;2024-01-15T02:34:36;94488.13;;;-3.07;72.19
78835;BME280;68187;42.682;23.352;2024-01-15T02:37:03;94490.88;;;-3.08;72.93
78835;BME280;68187;42.682;23.352;2024-01-15T02:39:30;94498.84;;;-2.97;72.33
78835;BME280;68187;42.682;23.352;2024-01-15T02:41:58;94490.94;;;-2.88;72.10
78835;BME280;68187;42.682;23.352;2024-01-15T02:44:25;94496.88;;;-2.95;72.09
78835;BME280;68187;42.682;23.352;2024-01-15T02:46:52;94492.31;;;-2.79;72.12
78835;BME280;68187;42.682;23.352;2024-01-15T02:49:19;94489.91;;;-2.68;71.37
78835;BME280;68187;42.682;23.352;2024-01-15T02:51:46;94491.31;;;-2.59;70.83
78835;BME280;68187;42.682;23.352;2024-01-15T02:54:13;94498.88;;;-2.64;70.98
78835;BME280;68187;42.682;23.352;2024-01-15T02:56:40;94486.34;;;-2.60;71.19
78835;BME280;68187;42.682;23.352;2024-01-15T02:59:08;94495.69;;;-2.53;70.92
78835;BME280;68187;42.682;23.352;2024-01-15T03:01:35;94486.72;;;-2.44;70.70
78835;BME280;68187;42.682;23.352;2024-01-15T03:04:02;94490.13;;;-2.43;69.81
78835;BME280;68187;42.682;23.352;2024-01-15T03:06:29;94492.28;;;-2.47;70.38
78835;BME280;68187;42.682;23.352;2024-01-15T03:08:57;94491.91;;;-2.44;70.46
78835;BME280;68187;42.682;23.352;2024-01-15T03:11:24;94495.44;;;-2.32;69.86
78835;BME280;68187;42.682;23.352;2024-01-15T03:13:51;94497.88;;;-2.37;69.71
78835;BME280;68187;42.682;23.352;2024-01-15T03:16:20;94477.56;;;-2.40;70.01
78835;BME280;68187;42.682;23.352;2024-01-15T03:18:46;94480.75;;;-2.31;70.00
78835;BME280;68187;42.682;23.352;2024-01-15T03:21:13;94482.53;;;-2.25;69.32
78835;BME280;68187;42.682;23.352;2024-01-15T03:23:40;94484.34;;;-2.39;70.13
78835;BME280;68187;42.682;23.352;2024-01-15T03:26:07;94490.50;;;-2.40;69.59
78835;BME280;68187;42.682;23.352;2024-01-15T03:28:34;94481.94;;;-2.40;70.46
78835;BME280;68187;42.682;23.352;2024-01-15T03:31:01;94472.78;;;-2.43;70.02
78835;BME280;68187;42.682;23.352;2024-01-15T03:33:29;94468.41;;;-2.36;70.15
78835;BME280;68187;42.682;23.352;2024-01-15T03:35:56;94461.66;;;-2.37;69.91
78835;BME280;68187;42.682;23.352;2024-01-15T03:38:23;94471.19;;;-2.31;69.86
78835;BME280;68187;42.682;23.352;2024-01-15T03:40:50;94455.31;;;-2.34;69.97
78835;BME280;68187;42.682;23.352;2024-01-15T03:43:17;94455.28;;;-2.28;69.73
78835;BME280;68187;42.682;23.352;2024-01-15T03:45:44;94468.03;;;-2.33;69.83
78835;BME280;68187;42.682;23.352;2024-01-15T03:48:12;94465.22;;;-2.31;70.22
78835;BME280;68187;42.682;23.352;2024-01-15T03:50:40;94468.81;;;-2.26;70.23
78835;BME280;68187;42.682;23.352;2024-01-15T03:53:07;94461.66;;;-2.30;69.91
78835;BME280;68187;42.682;23.352;2024-01-15T03:55:34;94464.00;;;-2.22;69.60
78835;BME280;68187;42.682;23.352;2024-01-15T03:58:01;94460.81;;;-2.18;69.49
78835;BME280;68187;42.682;23.352;2024-01-15T04:00:28;94461.22;;;-2.27;69.70
78835;BME280;68187;42.682;23.352;2024-01-15T04:02:54;94461.63;;;-2.24;70.10
78835;BME280;68187;42.682;23.352;2024-01-15T04:05:21;94458.47;;;-2.26;70.09
78835;BME280;68187;42.682;23.352;2024-01-15T04:07:50;94454.44;;;-2.15;69.83
78835;BME280;68187;42.682;23.352;2024-01-15T04:10:17;94445.13;;;-2.16;69.71
78835;BME280;68187;42.682;23.352;2024-01-15T04:12:44;94452.47;;;-2.20;69.82
78835;BME280;68187;42.682;23.352;2024-01-15T04:15:11;94450.28;;;-2.23;69.96
78835;BME280;68187;42.682;23.352;2024-01-15T04:17:38;94443.34;;;-2.29;69.78
78835;BME280;68187;42.682;23.352;2024-01-15T04:20:06;94445.34;;;-2.31;70.21
78835;BME280;68187;42.682;23.352;2024-01-15T04:22:34;94445.38;;;-2.44;70.46
78835;BME280;68187;42.682;23.352;2024-01-15T04:25:04;94447.38;;;-2.46;69.97
78835;BME280;68187;42.682;23.352;2024-01-15T04:27:31;94445.38;;;-2.44;70.11
78835;BME280;68187;42.682;23.352;2024-01-15T04:29:58;94439.41;;;-2.51;69.73
78835;BME280;68187;42.682;23.352;2024-01-15T04:32:25;94448.38;;;-2.60;70.72
78835;BME280;68187;42.682;23.352;2024-01-15T04:34:52;94450.38;;;-2.62;70.09
78835;BME280;68187;42.682;23.352;2024-01-15T04:37:19;94438.44;;;-2.63;70.29
78835;BME280;68187;42.682;23.352;2024-01-15T04:39:46;94445.22;;;-2.68;70.16
78835;BME280;68187;42.682;23.352;2024-01-15T04:42:14;94443.59;;;-2.69;70.30
78835;BME280;68187;42.682;23.352;2024-01-15T04:44:41;94447.81;;;-2.75;70.89
78835;BME280;68187;42.682;23.352;2024-01-15T04:47:08;94437.06;;;-2.85;70.52
78835;BME280;68187;42.682;23.352;2024-01-15T04:49:35;94429.69;;;-2.95;70.18
78835;BME280;68187;42.682;23.352;2024-01-15T04:52:02;94430.72;;;-2.96;70.92
78835;BME280;68187;42.682;23.352;2024-01-15T04:54:29;94435.28;;;-2.84;70.52
78835;BME280;68187;42.682;23.352;2024-01-15T04:56:56;94433.06;;;-2.74;70.68
78835;BME280;68187;42.682;23.352;2024-01-15T04:59:24;94411.44;;;-2.93;70.67
78835;BME280;68187;42.682;23.352;2024-01-15T05:01:51;94417.78;;;-2.89;70.82
78835;BME280;68187;42.682;23.352;2024-01-15T05:04:18;94431.88;;;-2.78;70.37
78835;BME280;68187;42.682;23.352;2024-01-15T05:06:45;94430.50;;;-2.81;70.78
78835;BME280;68187;42.682;23.352;2024-01-15T05:09:12;94428.31;;;-2.84;71.06
78835;BME280;68187;42.682;23.352;2024-01-15T05:11:39;94418.56;;;-2.75;70.75
78835;BME280;68187;42.682;23.352;2024-01-15T05:14:06;94414.38;;;-2.70;70.49
78835;BME280;68187;42.682;23.352;2024-01-15T05:16:34;94407.84;;;-2.85;70.95
78835;BME280;68187;42.682;23.352;2024-01-15T05:19:01;94398.50;;;-2.80;70.93
78835;BME280;68187;42.682;23.352;2024-01-15T05:21:28;94416.59;;;-2.73;70.92
78835;BME280;68187;42.682;23.352;2024-01-15T05:23:55;94402.69;;;-2.92;71.60
78835;BME280;68187;42.682;23.352;2024-01-15T05:26:22;94418.59;;;-2.82;71.21
78835;BME280;68187;42.682;23.352;2024-01-15T05:28:49;94426.72;;;-2.85;70.94
78835;BME280;68187;42.682;23.352;2024-01-15T05:31:16;94412.63;;;-2.96;72.06
78835;BME280;68187;42.682;23.352;2024-01-15T05:33:44;94418.38;;;-2.87;71.66
78835;BME280;68187;42.682;23.352;2024-01-15T05:36:11;94409.25;;;-3.09;72.84
78835;BME280;68187;42.682;23.352;2024-01-15T05:38:39;94402.31;;;-3.02;72.40
78835;BME280;68187;42.682;23.352;2024-01-15T05:41:06;94397.31;;;-2.97;72.73
78835;BME280;68187;42.682;23.352;2024-01-15T05:43:33;94402.91;;;-3.07;72.29
78835;BME280;68187;42.682;23.352;2024-01-15T05:46:00;94406.25;;;-3.00;72.30
78835;BME280;68187;42.682;23.352;2024-01-15T05:48:27;94400.31;;;-2.94;71.94
78835;BME280;68187;42.682;23.352;2024-01-15T05:50:55;94398.09;;;-2.83;71.83
78835;BME280;68187;42.682;23.352;2024-01-15T05:53:22;94385.78;;;-2.81;70.93
78835;BME280;68187;42.682;23.352;2024-01-15T05:55:49;94386.59;;;-2.94;71.44
78835;BME280;68187;42.682;23.352;2024-01-15T05:58:16;94387.56;;;-2.95;71.57
78835;BME280;68187;42.682;23.352;2024-01-15T06:00:43;94383.22;;;-2.95;71.49
78835;BME280;68187;42.682;23.352;2024-01-15T06:03:11;94391.16;;;-2.90;71.64
78835;BME280;68187;42.682;23.352;2024-01-15T06:05:38;94412.41;;;-2.94;71.95
78835;BME280;68187;42.682;23.352;2024-01-15T06:08:06;94404.88;;;-2.89;71.43
78835;BME280;68187;42.682;23.352;2024-01-15T06:10:33;94411.44;;;-2.80;71.53
78835;BME280;68187;42.682;23.352;2024-01-15T06:13:01;94398.88;;;-2.70;71.07
78835;BME280;68187;42.682;23.352;2024-01-15T06:15:28;94406.22;;;-2.67;71.39
78835;BME280;68187;42.682;23.352;2024-01-15T06:17:55;94388.97;;;-2.79;71.28
78835;BME280;68187;42.682;23.352;2024-01-15T06:20:22;94398.69;;;-2.88;71.43
78835;BME280;68187;42.682;23.352;2024-01-15T06:22:49;94393.75;;;-2.90;71.90
78835;BME280;68187;42.682;23.352;2024-01-15T06:25:17;94388.16;;;-2.80;72.11
78835;BME280;68187;42.682;23.352;2024-01-15T06:27:44;94380.59;;;-2.68;71.45
78835;BME280;68187;42.682;23.352;2024-01-15T06:30:12;94378.19;;;-2.50;71.25
78835;BME280;68187;42.682;23.352;2024-01-15T06:32:39;94383.53;;;-2.39;70.92
78835;BME280;68187;42.682;23.352;2024-01-15T06:35:07;94387.88;;;-2.33;70.38
78835;BME280;68187;42.682;23.352;2024-01-15T06:37:36;94387.81;;;-2.20;70.18
78835;BME280;68187;42.682;23.352;2024-01-15T06:40:03;94398.09;;;-2.06;69.72
78835;BME280;68187;42.682;23.352;2024-01-15T06:42:32;94381.59;;;-2.05;70.95
78835;BME280;68187;42.682;23.352;2024-01-15T06:44:59;94391.31;;;-1.94;70.46
78835;BME280;68187;42.682;23.352;2024-01-15T06:47:26;94390.47;;;-1.82;70.21
78835;BME280;68187;42.682;23.352;2024-01-15T06:49:53;94392.56;;;-1.72;69.54
78835;BME280;68187;42.682;23.352;2024-01-15T06:52:20;94392.09;;;-1.56;70.15
78835;BME280;68187;42.682;23.352;2024-01-15T06:54:47;94392.91;;;-1.56;69.54
78835;BME280;68187;42.682;23.352;2024-01-15T06:57:14;94387.44;;;-1.48;69.98
78835;BME280;68187;42.682;23.352;2024-01-15T06:59:42;94403.56;;;-1.39;69.66
78835;BME280;68187;42.682;23.352;2024-01-15T07:02:09;94402.94;;;-1.34;69.10
78835;BME280;68187;42.682;23.352;2024-01-15T07:04:36;94404.94;;;-1.36;68.21
78835;BME280;68187;42.682;23.352;2024-01-15T07:07:04;94415.06;;;-1.35;68.58
78835;BME280;68187;42.682;23.352;2024-01-15T07:09:31;94395.13;;;-1.28;68.38
78835;BME280;68187;42.682;23.352;2024-01-15T07:11:58;94405.13;;;-1.38;69.18
78835;BME280;68187;42.682;23.352;2024-01-15T07:14:25;94396.53;;;-1.32;69.30
78835;BME280;68187;42.682;23.352;2024-01-15T07:16:53;94393.06;;;-1.19;68.16
78835;BME280;68187;42.682;23.352;2024-01-15T07:19:20;94404.53;;;-1.09;68.53
78835;BME280;68187;42.682;23.352;2024-01-15T07:21:47;94405.75;;;-1.11;69.02
78835;BME280;68187;42.682;23.352;2024-01-15T07:24:14;94406.88;;;-1.01;68.35
78835;BME280;68187;42.682;23.352;2024-01-15T07:26:41;94396.91;;;-1.04;68.21
78835;BME280;68187;42.682;23.352;2024-01-15T07:29:08;94394.97;;;-1.08;69.22
78835;BME280;68187;42.682;23.352;2024-01-15T07:31:35;94391.78;;;-1.10;69.28
78835;BME280;68187;42.682;23.352;2024-01-15T07:34:03;94380.69;;;-0.93;68.83
78835;BME280;68187;42.682;23.352;2024-01-15T07:36:30;94371.63;;;-0.84;68.59
78835;BME280;68187;42.682;23.352;2024-01-15T07:38:57;94385.31;;;-0.77;69.24
78835;BME280;68187;42.682;23.352;2024-01-15T07:41:24;94377.84;;;-0.85;69.10
78835;BME280;68187;42.682;23.352;2024-01-15T07:43:51;94389.53;;;-0.76;67.91
78835;BME280;68187;42.682;23.352;2024-01-15T07:46:18;94386.06;;;-0.69;67.89
78835;BME280;68187;42.682;23.352;2024-01-15T07:48:45;94393.59;;;-0.61;68.18
78835;BME280;68187;42.682;23.352;2024-01-15T07:51:13;94404.25;;;-0.51;68.72
78835;BME280;68187;42.682;23.352;2024-01-15T07:53:40;94394.84;;;-0.46;67.17
78835;BME280;68187;42.682;23.352;2024-01-15T07:56:07;94408.00;;;-0.29;66.56
78835;BME280;68187;42.682;23.352;2024-01-15T07:58:34;94407.44;;;-0.31;67.17
78835;BME280;68187;42.682;23.352;2024-01-15T08:01:01;94390.16;;;-0.19;66.54
78835;BME280;68187;42.682;23.352;2024-01-15T08:03:28;94375.72;;;-0.15;66.22
78835;BME280;68187;42.682;23.352;2024-01-15T08:05:55;94354.97;;;-0.15;66.15
78835;BME280;68187;42.682;23.352;2024-01-15T08:08:24;94354.22;;;-0.04;65.51
78835;BME280;68187;42.682;23.352;2024-01-15T08:10:52;94367.66;;;-0.07;65.29
78835;BME280;68187;42.682;23.352;2024-01-15T08:13:19;94377.81;;;-0.06;65.48
78835;BME280;68187;42.682;23.352;2024-01-15T08:15:46;94381.00;;;-0.04;64.87
78835;BME280;68187;42.682;23.352;2024-01-15T08:18:13;94382.66;;;0.09;64.58
78835;BME280;68187;42.682;23.352;2024-01-15T08:20:40;94386.81;;;0.10;64.23
78835;BME280;68187;42.682;23.352;2024-01-15T08:23:07;94378.75;;;0.18;64.12
78835;BME280;68187;42.682;23.352;2024-01-15T08:25:35;94398.19;;;0.27;64.23
78835;BME280;68187;42.682;23.352;2024-01-15T08:28:02;94394.53;;;0.17;63.79
78835;BME280;68187;42.682;23.352;2024-01-15T08:30:29;94396.09;;;0.36;63.61
78835;BME280;68187;42.682;23.352;2024-01-15T08:32:57;94388.50;;;0.64;62.37
78835;BME280;68187;42.682;23.352;2024-01-15T08:35:24;94366.19;;;0.98;62.34
78835;BME280;68187;42.682;23.352;2024-01-15T08:37:51;94365.34;;;1.27;61.87
78835;BME280;68187;42.682;23.352;2024-01-15T08:40:19;94359.66;;;1.65;61.14
78835;BME280;68187;42.682;23.352;2024-01-15T08:42:47;94354.75;;;1.91;60.07
78835;BME280;68187;42.682;23.352;2024-01-15T08:45:14;94362.03;;;2.29;59.29
78835;BME280;68187;42.682;23.352;2024-01-15T08:47:41;94343.59;;;2.64;58.15
78835;BME280;68187;42.682;23.352;2024-01-15T08:50:08;94331.50;;;2.86;56.75
78835;BME280;68187;42.682;23.352;2024-01-15T08:52:36;94341.09;;;2.69;56.58
78835;BME280;68187;42.682;23.352;2024-01-15T08:55:04;94335.03;;;2.97;56.18
78835;BME280;68187;42.682;23.352;2024-01-15T08:57:32;94343.59;;;3.09;56.16
78835;BME280;68187;42.682;23.352;2024-01-15T09:00:01;94343.34;;;3.27;55.78
78835;BME280;68187;42.682;23.352;2024-01-15T09:02:29;94321.66;;;3.43;54.22
78835;BME280;68187;42.682;23.352;2024-01-15T09:04:56;94319.91;;;3.48;54.11
78835;BME280;68187;42.682;23.352;2024-01-15T09:07:22;94296.56;;;3.58;54.26
78835;BME280;68187;42.682;23.352;2024-01-15T09:09:50;94304.94;;;3.60;53.58
78835;BME280;68187;42.682;23.352;2024-01-15T09:12:17;94307.91;;;3.47;53.68
78835;BME280;68187;42.682;23.352;2024-01-15T09:14:46;94301.09;;;3.30;53.85
78835;BME280;68187;42.682;23.352;2024-01-15T09:17:14;94272.63;;;3.45;53.61
78835;BME280;68187;42.682;23.352;2024-01-15T09:19:41;94257.44;;;3.04;53.90
78835;BME280;68187;42.682;23.352;2024-01-15T09:22:08;94266.13;;;2.76;55.26
78835;BME280;68187;42.682;23.352;2024-01-15T09:24:36;94258.16;;;2.82;55.27
78835;BME280;68187;42.682;23.352;2024-01-15T09:27:03;94254.44;;;2.95;55.08
78835;BME280;68187;42.682;23.352;2024-01-15T09:29:30;94263.50;;;3.09;55.29
78835;BME280;68187;42.682;23.352;2024-01-15T09:31:57;94259.00;;;3.05;54.64
78835;BME280;68187;42.682;23.352;2024-01-15T09:34:26;94249.06;;;2.85;54.65
78835;BME280;68187;42.682;23.352;2024-01-15T09:36:52;94262.97;;;2.74;54.85
78835;BME280;68187;42.682;23.352;2024-01-15T09:39:19;94251.38;;;2.65;55.68
78835;BME280;68187;42.682;23.352;2024-01-15T09:41:48;94236.19;;;2.62;56.12
78835;BME280;68187;42.682;23.352;2024-01-15T09:44:16;94248.34;;;1.95;56.95
78835;BME280;68187;42.682;23.352;2024-01-15T09:46:44;94241.94;;;2.02;56.83
78835;BME280;68187;42.682;23.352;2024-01-15T09:49:11;94223.91;;;1.84;57.24
78835;BME280;68187;42.682;23.352;2024-01-15T09:51:40;94234.72;;;1.76;57.78
78835;BME280;68187;42.682;23.352;2024-01-15T09:54:08;94216.91;;;1.85;57.90
78835;BME280;68187;42.682;23.352;2024-01-15T09:56:35;94225.78;;;1.72;58.64
78835;BME280;68187;42.682;23.352;2024-01-15T09:59:02;94191.97;;;1.72;58.99
78835;BME280;68187;42.682;23.352;2024-01-15T10:01:31;94200.84;;;1.48;59.42
78835;BME280;68187;42.682;23.352;2024-01-15T10:03:58;94198.63;;;1.40;60.22
78835;BME280;68187;42.682;23.352;2024-01-15T10:06:27;94202.16;;;1.62;59.77
78835;BME280;68187;42.682;23.352;2024-01-15T10:08:57;94226.19;;;1.41;60.71
78835;BME280;68187;42.682;23.352;2024-01-15T10:11:25;94213.84;;;1.48;60.15
78835;BME280;68187;42.682;23.352;2024-01-15T10:13:52;94189.00;;;1.52;60.07
78835;BME280;68187;42.682;23.352;2024-01-15T10:16:20;94191.38;;;1.42;61.11
78835;BME280;68187;42.682;23.352;2024-01-15T10:18:47;94175.63;;;1.49;61.23
78835;BME280;68187;42.682;23.352;2024-01-15T10:21:14;94172.06;;;1.66;60.53
78835;BME280;68187;42.682;23.352;2024-01-15T10:23:41;94181.03;;;1.59;60.16
78835;BME280;68187;42.682;23.352;2024-01-15T10:26:11;94157.47;;;1.65;60.81
78835;BME280;68187;42.682;23.352;2024-01-15T10:28:38;94169.25;;;1.84;60.09
78835;BME280;68187;42.682;23.352;2024-01-15T10:31:06;94150.47;;;1.82;60.91
78835;BME280;68187;42.682;23.352;2024-01-15T10:33:33;94153.91;;;1.99;59.84
78835;BME280;68187;42.682;23.352;2024-01-15T10:36:00;94157.63;;;2.03;60.24
78835;BME280;68187;42.682;23.352;2024-01-15T10:38:27;94150.19;;;2.12;60.21
78835;BME280;68187;42.682;23.352;2024-01-15T10:40:55;94130.53;;;2.21;59.00
78835;BME280;68187;42.682;23.352;2024-01-15T10:43:24;94145.31;;;2.32;59.93
78835;BME280;68187;42.682;23.352;2024-01-15T10:45:51;94151.16;;;2.06;59.81
78835;BME280;68187;42.682;23.352;2024-01-15T10:48:19;94147.59;;;2.29;59.91
78835;BME280;68187;42.682;23.352;2024-01-15T10:50:46;94146.72;;;1.90;60.35
78835;BME280;68187;42.682;23.352;2024-01-15T10:53:15;94140.81;;;2.28;60.12
78835;BME280;68187;42.682;23.352;2024-01-15T10:55:42;94125.72;;;2.46;59.12
78835;BME280;68187;42.682;23.352;2024-01-15T10:58:10;94124.97;;;2.67;59.16
78835;BME280;68187;42.682;23.352;2024-01-15T11:00:38;94124.19;;;2.88;58.30
78835;BME280;68187;42.682;23.352;2024-01-15T11:03:06;94114.38;;;2.96;57.53
78835;BME280;68187;42.682;23.352;2024-01-15T11:05:34;94113.47;;;3.07;56.15
78835;BME280;68187;42.682;23.352;2024-01-15T11:08:05;94119.13;;;3.20;56.04
78835;BME280;68187;42.682;23.352;2024-01-15T11:10:40;94121.56;;;3.27;55.45
78835;BME280;68187;42.682;23.352;2024-01-15T11:13:13;94114.38;;;3.39;54.67
78835;BME280;68187;42.682;23.352;2024-01-15T11:15:58;94095.44;;;3.48;54.37
78835;BME280;68187;42.682;23.352;2024-01-15T11:18:27;94090.66;;;3.40;54.01
78835;BME280;68187;42.682;23.352;2024-01-15T11:21:22;94086.84;;;3.80;54.02
78835;BME280;68187;42.682;23.352;2024-01-15T11:23:52;94092.53;;;4.03;53.59
78835;BME280;68187;42.682;23.352;2024-01-15T11:26:32;94080.59;;;4.12;52.05
78835;BME280;68187;42.682;23.352;2024-01-15T11:29:02;94075.09;;;4.14;52.36
78835;BME280;68187;42.682;23.352;2024-01-15T11:31:57;94078.94;;;4.01;52.26
78835;BME280;68187;42.682;23.352;2024-01-15T11:37:58;94071.34;;;4.37;51.69
78835;BME280;68187;42.682;23.352;2024-01-15T11:40:36;94068.28;;;4.45;50.79
78835;BME280;68187;42.682;23.352;2024-01-15T11:43:03;94066.34;;;4.30;51.59
78835;BME280;68187;42.682;23.352;2024-01-15T11:45:31;94051.72;;;4.34;51.95
78835;BME280;68187;42.682;23.352;2024-01-15T11:48:14;94067.44;;;4.39;51.50
78835;BME280;68187;42.682;23.352;2024-01-15T11:50:42;94071.34;;;4.31;51.30
78835;BME280;68187;42.682;23.352;2024-01-15T11:53:31;94072.66;;;4.39;51.31
78835;BME280;68187;42.682;23.352;2024-01-15T11:56:02;94058.84;;;4.44;51.96
78835;BME280;68187;42.682;23.352;2024-01-15T11:58:30;94047.84;;;4.42;51.77
78835;BME280;68187;42.682;23.352;2024-01-15T12:00:57;94037.69;;;4.50;51.83
78835;BME280;68187;42.682;23.352;2024-01-15T12:03:26;94035.59;;;4.42;51.85
78835;BME280;68187;42.682;23.352;2024-01-15T12:05:53;94033.16;;;4.30;52.77
78835;BME280;68187;42.682;23.352;2024-01-15T12:08:23;94045.38;;;4.25;52.47
78835;BME280;68187;42.682;23.352;2024-01-15T12:10:51;94047.78;;;4.26;52.32
78835;BME280;68187;42.682;23.352;2024-01-15T12:13:18;94034.75;;;4.31;52.04
78835;BME280;68187;42.682;23.352;2024-01-15T12:15:47;94031.38;;;4.41;52.32
78835;BME280;68187;42.682;23.352;2024-01-15T12:18:15;94029.06;;;4.45;52.65
78835;BME280;68187;42.682;23.352;2024-01-15T12:20:45;94022.50;;;4.42;52.33
78835;BME280;68187;42.682;23.352;2024-01-15T12:23:13;94019.81;;;4.32;52.55
78835;BME280;68187;42.682;23.352;2024-01-15T12:25:41;94019.09;;;4.42;52.36
78835;BME280;68187;42.682;23.352;2024-01-15T12:28:08;94020.00;;;4.62;51.91
78835;BME280;68187;42.682;23.352;2024-01-15T12:30:35;94013.53;;;4.28;52.52
78835;BME280;68187;42.682;23.352;2024-01-15T12:33:04;94011.50;;;4.35;52.72
78835;BME280;68187;42.682;23.352;2024-01-15T12:35:31;94015.69;;;4.41;52.92
78835;BME280;68187;42.682;23.352;2024-01-15T12:38:01;94008.81;;;4.25;52.33
78835;BME280;68187;42.682;23.352;2024-01-15T12:40:29;94004.16;;;4.32;52.36
78835;BME280;68187;42.682;23.352;2024-01-15T12:42:57;94009.19;;;4.44;52.39
78835;BME280;68187;42.682;23.352;2024-01-15T12:45:24;94012.63;;;4.49;52.98
78835;BME280;68187;42.682;23.352;2024-01-15T12:47:51;93990.34;;;4.42;53.24
78835;BME280;68187;42.682;23.352;2024-01-15T12:50:18;93990.38;;;4.47;53.03
78835;BME280;68187;42.682;23.352;2024-01-15T12:52:45;93990.91;;;4.49;52.52
78835;BME280;68187;42.682;23.352;2024-01-15T12:55:14;94002.88;;;4.40;51.90
78835;BME280;68187;42.682;23.352;2024-01-15T12:57:41;93995.56;;;4.42;52.26
78835;BME280;68187;42.682;23.352;2024-01-15T13:00:08;93980.72;;;4.47;52.55